sensor_id;sensor_type;location;lat;lon;timestamp;P1;durP1;ratioP1;P2;durP2;ratioP2
22754;SDS011;11544;42.020;23.094;2023-02-02T00:01:22;12.88;;;7.00;;
22754;SDS011;11544;42.020;23.094;2023-02-02T00:03:50;15.95;;;7.63;;
22754;SDS011;11544;42.020;23.094;2023-02-02T00:06:18;22.73;;;8.93;;
22754;SDS011;11544;42.020;23.094;2023-02-02T00:08:46;19.67;;;9.10;;
22754;SDS011;11544;42.020;23.094;2023-02-02T00:11:13;21.92;;;9.85;;
22754;SDS011;11544;42.020;23.094;2023-02-02T00:13:41;21.55;;;9.40;;
22754;SDS011;11544;42.020;23.094;2023-02-02T00:18:55;18.75;;;8.93;;
22754;SDS011;11544;42.020;23.094;2023-02-02T00:21:23;21.40;;;9.15;;
22754;SDS011;11544;42.020;23.094;2023-02-02T00:23:51;16.85;;;8.73;;
22754;SDS011;11544;42.020;23.094;2023-02-02T00:26:19;20.88;;;9.35;;
22754;SDS011;11544;42.020;23.094;2023-02-02T00:28:46;19.02;;;9.43;;
22754;SDS011;11544;42.020;23.094;2023-02-02T00:31:13;23.33;;;10.35;;
22754;SDS011;11544;42.020;23.094;2023-02-02T00:33:44;20.60;;;8.90;;
22754;SDS011;11544;42.020;23.094;2023-02-02T00:36:15;25.02;;;10.20;;
22754;SDS011;11544;42.020;23.094;2023-02-02T00:38:42;21.95;;;10.30;;
22754;SDS011;11544;42.020;23.094;2023-02-02T00:41:09;18.30;;;9.23;;
22754;SDS011;11544;42.020;23.094;2023-02-02T00:43:36;17.85;;;8.30;;
22754;SDS011;11544;42.020;23.094;2023-02-02T00:46:04;18.38;;;8.60;;
22754;SDS011;11544;42.020;23.094;2023-02-02T00:48:31;15.68;;;7.93;;
22754;SDS011;11544;42.020;23.094;2023-02-02T00:50:58;18.10;;;8.23;;
22754;SDS011;11544;42.020;23.094;2023-02-02T00:53:27;13.38;;;7.05;;
22754;SDS011;11544;42.020;23.094;2023-02-02T00:55:54;15.10;;;7.63;;
22754;SDS011;11544;42.020;23.094;2023-02-02T00:58:21;16.92;;;9.00;;
22754;SDS011;11544;42.020;23.094;2023-02-02T01:00:48;19.77;;;8.82;;
22754;SDS011;11544;42.020;23.094;2023-02-02T01:03:15;16.95;;;8.18;;
22754;SDS011;11544;42.020;23.094;2023-02-02T01:05:42;17.42;;;8.00;;
22754;SDS011;11544;42.020;23.094;2023-02-02T01:08:09;16.35;;;7.38;;
22754;SDS011;11544;42.020;23.094;2023-02-02T01:10:36;14.65;;;6.93;;
22754;SDS011;11544;42.020;23.094;2023-02-02T01:13:02;18.58;;;8.68;;
22754;SDS011;11544;42.020;23.094;2023-02-02T01:15:29;17.70;;;7.85;;
22754;SDS011;11544;42.020;23.094;2023-02-02T01:17:56;20.30;;;8.50;;
22754;SDS011;11544;42.020;23.094;2023-02-02T01:20:23;17.02;;;7.82;;
22754;SDS011;11544;42.020;23.094;2023-02-02T01:22:51;18.42;;;8.70;;
22754;SDS011;11544;42.020;23.094;2023-02-02T01:25:18;17.58;;;7.80;;
22754;SDS011;11544;42.020;23.094;2023-02-02T01:27:45;15.43;;;7.80;;
22754;SDS011;11544;42.020;23.094;2023-02-02T01:30:12;15.02;;;7.32;;
22754;SDS011;11544;42.020;23.094;2023-02-02T01:32:40;14.00;;;7.32;;
22754;SDS011;11544;42.020;23.094;2023-02-02T01:35:07;16.50;;;7.70;;
22754;SDS011;11544;42.020;23.094;2023-02-02T01:37:35;20.90;;;8.38;;
22754;SDS011;11544;42.020;23.094;2023-02-02T01:40:04;13.90;;;7.38;;
22754;SDS011;11544;42.020;23.094;2023-02-02T01:42:31;16.88;;;6.93;;
22754;SDS011;11544;42.020;23.094;2023-02-02T01:47:51;11.05;;;7.13;;
22754;SDS011;11544;42.020;23.094;2023-02-02T01:50:23;15.95;;;7.28;;
22754;SDS011;11544;42.020;23.094;2023-02-02T01:52:57;16.27;;;6.95;;
22754;SDS011;11544;42.020;23.094;2023-02-02T01:55:25;14.18;;;7.40;;
22754;SDS011;11544;42.020;23.094;2023-02-02T01:58:02;16.13;;;8.27;;
22754;SDS011;11544;42.020;23.094;2023-02-02T02:00:35;16.35;;;7.50;;
22754;SDS011;11544;42.020;23.094;2023-02-02T02:03:07;15.55;;;7.80;;
22754;SDS011;11544;42.020;23.094;2023-02-02T02:05:40;13.30;;;7.18;;
22754;SDS011;11544;42.020;23.094;2023-02-02T02:08:23;16.40;;;7.93;;
22754;SDS011;11544;42.020;23.094;2023-02-02T02:10:53;15.45;;;8.25;;
22754;SDS011;11544;42.020;23.094;2023-02-02T02:13:21;15.85;;;7.50;;
22754;SDS011;11544;42.020;23.094;2023-02-02T02:16:17;16.08;;;7.60;;
22754;SDS011;11544;42.020;23.094;2023-02-02T02:18:53;16.63;;;8.02;;
22754;SDS011;11544;42.020;23.094;2023-02-02T02:22:02;14.65;;;7.82;;
22754;SDS011;11544;42.020;23.094;2023-02-02T02:30:52;17.15;;;8.10;;
22754;SDS011;11544;42.020;23.094;2023-02-02T02:33:45;16.50;;;7.57;;
22754;SDS011;11544;42.020;23.094;2023-02-02T02:36:18;16.33;;;6.95;;
22754;SDS011;11544;42.020;23.094;2023-02-02T02:38:50;12.45;;;7.18;;
22754;SDS011;11544;42.020;23.094;2023-02-02T02:41:42;14.63;;;7.47;;
22754;SDS011;11544;42.020;23.094;2023-02-02T02:44:15;14.95;;;7.75;;
22754;SDS011;11544;42.020;23.094;2023-02-02T02:46:43;18.13;;;8.32;;
22754;SDS011;11544;42.020;23.094;2023-02-02T02:49:11;15.40;;;9.07;;
22754;SDS011;11544;42.020;23.094;2023-02-02T02:51:49;14.10;;;8.02;;
22754;SDS011;11544;42.020;23.094;2023-02-02T02:54:38;16.88;;;9.65;;
22754;SDS011;11544;42.020;23.094;2023-02-02T03:02:54;17.42;;;8.68;;
22754;SDS011;11544;42.020;23.094;2023-02-02T03:10:38;15.70;;;7.75;;
22754;SDS011;11544;42.020;23.094;2023-02-02T03:13:07;15.52;;;8.15;;
22754;SDS011;11544;42.020;23.094;2023-02-02T03:15:39;13.07;;;6.68;;
22754;SDS011;11544;42.020;23.094;2023-02-02T03:18:07;15.73;;;7.95;;
22754;SDS011;11544;42.020;23.094;2023-02-02T03:20:34;19.35;;;8.35;;
22754;SDS011;11544;42.020;23.094;2023-02-02T03:23:01;11.00;;;6.43;;
22754;SDS011;11544;42.020;23.094;2023-02-02T03:25:28;12.32;;;6.57;;
22754;SDS011;11544;42.020;23.094;2023-02-02T03:27:55;15.40;;;6.82;;
22754;SDS011;11544;42.020;23.094;2023-02-02T03:30:24;14.05;;;5.38;;
22754;SDS011;11544;42.020;23.094;2023-02-02T03:32:51;8.90;;;4.80;;
22754;SDS011;11544;42.020;23.094;2023-02-02T03:35:18;9.82;;;4.75;;
22754;SDS011;11544;42.020;23.094;2023-02-02T03:37:48;10.43;;;4.78;;
22754;SDS011;11544;42.020;23.094;2023-02-02T03:40:16;9.10;;;4.90;;
22754;SDS011;11544;42.020;23.094;2023-02-02T03:42:43;9.70;;;4.85;;
22754;SDS011;11544;42.020;23.094;2023-02-02T03:45:10;8.02;;;4.50;;
22754;SDS011;11544;42.020;23.094;2023-02-02T03:47:37;6.93;;;4.30;;
22754;SDS011;11544;42.020;23.094;2023-02-02T03:50:04;9.15;;;5.03;;
22754;SDS011;11544;42.020;23.094;2023-02-02T03:52:34;11.50;;;6.22;;
22754;SDS011;11544;42.020;23.094;2023-02-02T03:55:01;17.38;;;9.63;;
22754;SDS011;11544;42.020;23.094;2023-02-02T03:57:30;9.23;;;4.88;;
22754;SDS011;11544;42.020;23.094;2023-02-02T03:59:56;17.38;;;7.80;;
22754;SDS011;11544;42.020;23.094;2023-02-02T04:02:23;16.35;;;9.60;;
22754;SDS011;11544;42.020;23.094;2023-02-02T04:04:50;15.35;;;8.98;;
22754;SDS011;11544;42.020;23.094;2023-02-02T04:07:17;20.70;;;9.10;;
22754;SDS011;11544;42.020;23.094;2023-02-02T04:09:45;17.83;;;8.75;;
22754;SDS011;11544;42.020;23.094;2023-02-02T04:12:12;14.52;;;9.52;;
22754;SDS011;11544;42.020;23.094;2023-02-02T04:14:39;16.17;;;7.82;;
22754;SDS011;11544;42.020;23.094;2023-02-02T04:17:05;11.68;;;6.40;;
22754;SDS011;11544;42.020;23.094;2023-02-02T04:19:32;17.98;;;9.13;;
22754;SDS011;11544;42.020;23.094;2023-02-02T04:21:59;14.50;;;8.23;;
22754;SDS011;11544;42.020;23.094;2023-02-02T04:24:28;18.88;;;8.50;;
22754;SDS011;11544;42.020;23.094;2023-02-02T04:26:55;17.23;;;7.97;;
22754;SDS011;11544;42.020;23.094;2023-02-02T04:29:22;21.17;;;8.82;;
22754;SDS011;11544;42.020;23.094;2023-02-02T04:31:51;14.85;;;7.20;;
22754;SDS011;11544;42.020;23.094;2023-02-02T04:34:18;10.63;;;6.05;;
22754;SDS011;11544;42.020;23.094;2023-02-02T04:36:45;13.63;;;7.10;;
22754;SDS011;11544;42.020;23.094;2023-02-02T04:39:12;12.85;;;7.25;;
22754;SDS011;11544;42.020;23.094;2023-02-02T04:41:40;13.02;;;6.93;;
22754;SDS011;11544;42.020;23.094;2023-02-02T04:44:11;12.65;;;6.90;;
22754;SDS011;11544;42.020;23.094;2023-02-02T04:46:41;11.88;;;6.63;;
22754;SDS011;11544;42.020;23.094;2023-02-02T04:49:09;10.13;;;5.60;;
22754;SDS011;11544;42.020;23.094;2023-02-02T04:51:37;19.05;;;7.80;;
22754;SDS011;11544;42.020;23.094;2023-02-02T04:54:05;13.95;;;8.40;;
22754;SDS011;11544;42.020;23.094;2023-02-02T04:56:32;17.80;;;8.85;;
22754;SDS011;11544;42.020;23.094;2023-02-02T04:58:59;15.20;;;8.88;;
22754;SDS011;11544;42.020;23.094;2023-02-02T05:01:27;16.52;;;9.15;;
22754;SDS011;11544;42.020;23.094;2023-02-02T05:03:55;17.58;;;9.07;;
22754;SDS011;11544;42.020;23.094;2023-02-02T05:06:22;18.88;;;9.20;;
22754;SDS011;11544;42.020;23.094;2023-02-02T05:08:49;16.52;;;8.35;;
22754;SDS011;11544;42.020;23.094;2023-02-02T05:11:18;17.13;;;8.45;;
22754;SDS011;11544;42.020;23.094;2023-02-02T05:13:49;17.45;;;8.65;;
22754;SDS011;11544;42.020;23.094;2023-02-02T05:16:18;25.45;;;13.75;;
22754;SDS011;11544;42.020;23.094;2023-02-02T05:18:49;19.58;;;10.93;;
22754;SDS011;11544;42.020;23.094;2023-02-02T05:21:18;33.20;;;13.02;;
22754;SDS011;11544;42.020;23.094;2023-02-02T05:23:45;33.45;;;12.43;;
22754;SDS011;11544;42.020;23.094;2023-02-02T05:26:17;21.92;;;10.90;;
22754;SDS011;11544;42.020;23.094;2023-02-02T05:28:47;26.60;;;11.32;;
22754;SDS011;11544;42.020;23.094;2023-02-02T05:31:14;32.50;;;14.15;;
22754;SDS011;11544;42.020;23.094;2023-02-02T05:33:41;29.27;;;14.82;;
22754;SDS011;11544;42.020;23.094;2023-02-02T05:36:08;27.58;;;14.25;;
22754;SDS011;11544;42.020;23.094;2023-02-02T05:38:35;25.80;;;13.40;;
22754;SDS011;11544;42.020;23.094;2023-02-02T05:41:02;24.55;;;12.63;;
22754;SDS011;11544;42.020;23.094;2023-02-02T05:43:31;24.88;;;12.07;;
22754;SDS011;11544;42.020;23.094;2023-02-02T05:45:58;24.75;;;13.05;;
22754;SDS011;11544;42.020;23.094;2023-02-02T05:48:26;27.95;;;12.30;;
22754;SDS011;11544;42.020;23.094;2023-02-02T05:53:31;31.08;;;14.75;;
22754;SDS011;11544;42.020;23.094;2023-02-02T05:55:59;27.38;;;14.23;;
22754;SDS011;11544;42.020;23.094;2023-02-02T05:58:28;33.40;;;15.48;;
22754;SDS011;11544;42.020;23.094;2023-02-02T06:00:55;36.03;;;17.92;;
22754;SDS011;11544;42.020;23.094;2023-02-02T06:03:22;32.17;;;17.80;;
22754;SDS011;11544;42.020;23.094;2023-02-02T06:05:49;42.88;;;20.58;;
22754;SDS011;11544;42.020;23.094;2023-02-02T06:08:16;38.92;;;18.90;;
22754;SDS011;11544;42.020;23.094;2023-02-02T06:10:43;47.22;;;21.67;;
22754;SDS011;11544;42.020;23.094;2023-02-02T06:13:22;51.15;;;24.10;;
22754;SDS011;11544;42.020;23.094;2023-02-02T06:15:49;52.10;;;24.20;;
22754;SDS011;11544;42.020;23.094;2023-02-02T06:18:16;48.38;;;22.65;;
22754;SDS011;11544;42.020;23.094;2023-02-02T06:20:43;57.55;;;24.80;;
22754;SDS011;11544;42.020;23.094;2023-02-02T06:23:11;48.70;;;21.65;;
22754;SDS011;11544;42.020;23.094;2023-02-02T06:25:38;37.78;;;17.77;;
22754;SDS011;11544;42.020;23.094;2023-02-02T06:28:05;34.17;;;17.33;;
22754;SDS011;11544;42.020;23.094;2023-02-02T06:30:33;35.65;;;16.75;;
22754;SDS011;11544;42.020;23.094;2023-02-02T06:33:00;28.90;;;15.65;;
22754;SDS011;11544;42.020;23.094;2023-02-02T06:35:27;32.10;;;15.77;;
22754;SDS011;11544;42.020;23.094;2023-02-02T06:37:54;40.33;;;17.42;;
22754;SDS011;11544;42.020;23.094;2023-02-02T06:40:20;31.58;;;16.48;;
22754;SDS011;11544;42.020;23.094;2023-02-02T06:42:47;36.45;;;17.10;;
22754;SDS011;11544;42.020;23.094;2023-02-02T06:45:21;27.83;;;14.77;;
22754;SDS011;11544;42.020;23.094;2023-02-02T06:47:49;25.30;;;14.85;;
22754;SDS011;11544;42.020;23.094;2023-02-02T06:50:16;36.85;;;17.55;;
22754;SDS011;11544;42.020;23.094;2023-02-02T06:52:47;38.92;;;17.08;;
22754;SDS011;11544;42.020;23.094;2023-02-02T06:55:15;33.38;;;18.15;;
22754;SDS011;11544;42.020;23.094;2023-02-02T06:57:42;38.83;;;18.75;;
22754;SDS011;11544;42.020;23.094;2023-02-02T07:00:10;36.65;;;18.40;;
22754;SDS011;11544;42.020;23.094;2023-02-02T07:02:37;36.67;;;18.13;;
22754;SDS011;11544;42.020;23.094;2023-02-02T07:05:04;39.70;;;18.85;;
22754;SDS011;11544;42.020;23.094;2023-02-02T07:07:32;30.38;;;16.98;;
22754;SDS011;11544;42.020;23.094;2023-02-02T07:09:59;35.78;;;18.42;;
22754;SDS011;11544;42.020;23.094;2023-02-02T07:12:28;39.25;;;21.23;;
22754;SDS011;11544;42.020;23.094;2023-02-02T07:14:55;49.20;;;24.52;;
22754;SDS011;11544;42.020;23.094;2023-02-02T07:17:24;39.22;;;18.30;;
22754;SDS011;11544;42.020;23.094;2023-02-02T07:19:51;43.58;;;21.73;;
22754;SDS011;11544;42.020;23.094;2023-02-02T07:22:18;39.15;;;18.60;;
22754;SDS011;11544;42.020;23.094;2023-02-02T07:24:45;34.17;;;18.13;;
22754;SDS011;11544;42.020;23.094;2023-02-02T07:27:13;40.70;;;19.08;;
22754;SDS011;11544;42.020;23.094;2023-02-02T07:29:40;40.33;;;18.88;;
22754;SDS011;11544;42.020;23.094;2023-02-02T07:32:06;41.83;;;18.98;;
22754;SDS011;11544;42.020;23.094;2023-02-02T07:34:36;34.47;;;17.65;;
22754;SDS011;11544;42.020;23.094;2023-02-02T07:37:04;29.25;;;14.77;;
22754;SDS011;11544;42.020;23.094;2023-02-02T07:39:31;33.17;;;15.65;;
22754;SDS011;11544;42.020;23.094;2023-02-02T07:41:58;31.02;;;16.48;;
22754;SDS011;11544;42.020;23.094;2023-02-02T07:44:25;29.77;;;14.98;;
22754;SDS011;11544;42.020;23.094;2023-02-02T07:46:52;28.15;;;15.48;;
22754;SDS011;11544;42.020;23.094;2023-02-02T07:49:19;29.70;;;14.93;;
22754;SDS011;11544;42.020;23.094;2023-02-02T07:51:46;29.27;;;16.27;;
22754;SDS011;11544;42.020;23.094;2023-02-02T07:54:14;39.75;;;18.10;;
22754;SDS011;11544;42.020;23.094;2023-02-02T07:56:41;33.75;;;18.58;;
22754;SDS011;11544;42.020;23.094;2023-02-02T07:59:09;41.95;;;19.92;;
22754;SDS011;11544;42.020;23.094;2023-02-02T08:01:36;37.15;;;18.15;;
22754;SDS011;11544;42.020;23.094;2023-02-02T08:04:03;39.65;;;20.13;;
22754;SDS011;11544;42.020;23.094;2023-02-02T08:06:32;33.72;;;18.73;;
22754;SDS011;11544;42.020;23.094;2023-02-02T08:09:02;43.22;;;19.77;;
22754;SDS011;11544;42.020;23.094;2023-02-02T08:11:30;32.40;;;18.45;;
22754;SDS011;11544;42.020;23.094;2023-02-02T08:13:58;38.33;;;18.50;;
22754;SDS011;11544;42.020;23.094;2023-02-02T08:16:27;37.75;;;18.77;;
22754;SDS011;11544;42.020;23.094;2023-02-02T08:18:55;30.75;;;15.93;;
22754;SDS011;11544;42.020;23.094;2023-02-02T08:21:22;32.38;;;16.02;;
22754;SDS011;11544;42.020;23.094;2023-02-02T08:23:50;31.48;;;16.73;;
22754;SDS011;11544;42.020;23.094;2023-02-02T08:26:19;34.17;;;21.15;;
22754;SDS011;11544;42.020;23.094;2023-02-02T08:29:07;30.85;;;18.05;;
22754;SDS011;11544;42.020;23.094;2023-02-02T08:31:35;38.00;;;19.52;;
22754;SDS011;11544;42.020;23.094;2023-02-02T08:34:07;38.40;;;18.42;;
22754;SDS011;11544;42.020;23.094;2023-02-02T08:36:35;37.22;;;16.42;;
22754;SDS011;11544;42.020;23.094;2023-02-02T08:39:04;29.85;;;13.63;;
22754;SDS011;11544;42.020;23.094;2023-02-02T08:41:34;23.65;;;12.93;;
22754;SDS011;11544;42.020;23.094;2023-02-02T08:44:05;20.65;;;11.93;;
22754;SDS011;11544;42.020;23.094;2023-02-02T08:46:36;29.05;;;13.23;;
22754;SDS011;11544;42.020;23.094;2023-02-02T08:49:03;22.98;;;12.75;;
22754;SDS011;11544;42.020;23.094;2023-02-02T08:51:30;25.33;;;15.10;;
22754;SDS011;11544;42.020;23.094;2023-02-02T08:53:57;31.00;;;13.82;;
22754;SDS011;11544;42.020;23.094;2023-02-02T08:56:24;31.70;;;14.25;;
22754;SDS011;11544;42.020;23.094;2023-02-02T08:58:52;30.08;;;14.95;;
22754;SDS011;11544;42.020;23.094;2023-02-02T09:01:21;33.85;;;15.57;;
22754;SDS011;11544;42.020;23.094;2023-02-02T09:03:54;35.85;;;15.98;;
22754;SDS011;11544;42.020;23.094;2023-02-02T09:06:25;28.85;;;14.48;;
22754;SDS011;11544;42.020;23.094;2023-02-02T09:08:54;48.55;;;20.05;;
22754;SDS011;11544;42.020;23.094;2023-02-02T09:11:22;39.53;;;16.80;;
22754;SDS011;11544;42.020;23.094;2023-02-02T09:13:53;21.55;;;11.95;;
22754;SDS011;11544;42.020;23.094;2023-02-02T09:16:22;22.90;;;10.63;;
22754;SDS011;11544;42.020;23.094;2023-02-02T09:18:51;37.38;;;16.45;;
22754;SDS011;11544;42.020;23.094;2023-02-02T09:21:18;26.73;;;13.02;;
22754;SDS011;11544;42.020;23.094;2023-02-02T09:23:47;29.10;;;13.63;;
22754;SDS011;11544;42.020;23.094;2023-02-02T09:26:19;23.02;;;12.43;;
22754;SDS011;11544;42.020;23.094;2023-02-02T09:28:56;27.02;;;14.60;;
22754;SDS011;11544;42.020;23.094;2023-02-02T09:31:28;24.27;;;14.43;;
22754;SDS011;11544;42.020;23.094;2023-02-02T09:34:03;24.25;;;11.82;;
22754;SDS011;11544;42.020;23.094;2023-02-02T09:36:32;22.67;;;13.35;;
22754;SDS011;11544;42.020;23.094;2023-02-02T09:38:59;23.17;;;11.18;;
22754;SDS011;11544;42.020;23.094;2023-02-02T09:46:43;22.02;;;11.70;;
22754;SDS011;11544;42.020;23.094;2023-02-02T09:49:23;23.50;;;11.35;;
22754;SDS011;11544;42.020;23.094;2023-02-02T09:52:01;24.20;;;11.73;;
22754;SDS011;11544;42.020;23.094;2023-02-02T09:54:50;24.25;;;14.52;;
22754;SDS011;11544;42.020;23.094;2023-02-02T09:57:24;33.40;;;15.57;;
22754;SDS011;11544;42.020;23.094;2023-02-02T09:59:57;27.23;;;14.02;;
22754;SDS011;11544;42.020;23.094;2023-02-02T10:02:30;23.42;;;13.25;;
22754;SDS011;11544;42.020;23.094;2023-02-02T10:05:12;25.85;;;13.65;;
22754;SDS011;11544;42.020;23.094;2023-02-02T10:07:46;26.42;;;12.90;;
22754;SDS011;11544;42.020;23.094;2023-02-02T10:10:19;26.90;;;14.60;;
22754;SDS011;11544;42.020;23.094;2023-02-02T10:12:53;24.35;;;12.75;;
22754;SDS011;11544;42.020;23.094;2023-02-02T10:16:01;21.02;;;10.60;;
22754;SDS011;11544;42.020;23.094;2023-02-02T10:18:50;23.08;;;12.10;;
22754;SDS011;11544;42.020;23.094;2023-02-02T10:21:36;19.70;;;11.60;;
22754;SDS011;11544;42.020;23.094;2023-02-02T10:24:15;15.32;;;8.57;;
22754;SDS011;11544;42.020;23.094;2023-02-02T10:26:46;20.02;;;10.55;;
22754;SDS011;11544;42.020;23.094;2023-02-02T10:37:28;5.93;;;3.28;;
22754;SDS011;11544;42.020;23.094;2023-02-02T10:40:06;10.43;;;4.10;;
22754;SDS011;11544;42.020;23.094;2023-02-02T10:42:41;8.65;;;4.43;;
22754;SDS011;11544;42.020;23.094;2023-02-02T10:45:38;3.97;;;1.80;;
22754;SDS011;11544;42.020;23.094;2023-02-02T10:48:15;4.53;;;2.55;;
22754;SDS011;11544;42.020;23.094;2023-02-02T10:50:48;7.72;;;3.28;;
22754;SDS011;11544;42.020;23.094;2023-02-02T10:53:19;18.13;;;7.00;;
22754;SDS011;11544;42.020;23.094;2023-02-02T10:58:49;12.40;;;5.53;;
22754;SDS011;11544;42.020;23.094;2023-02-02T11:01:30;10.90;;;5.80;;
22754;SDS011;11544;42.020;23.094;2023-02-02T11:03:57;7.38;;;4.53;;
22754;SDS011;11544;42.020;23.094;2023-02-02T11:06:42;9.70;;;2.30;;
22754;SDS011;11544;42.020;23.094;2023-02-02T11:09:57;3.10;;;1.50;;
22754;SDS011;11544;42.020;23.094;2023-02-02T11:12:12;3.65;;;1.92;;
22754;SDS011;11544;42.020;23.094;2023-02-02T11:14:46;4.05;;;2.00;;
22754;SDS011;11544;42.020;23.094;2023-02-02T11:17:19;4.75;;;3.03;;
22754;SDS011;11544;42.020;23.094;2023-02-02T11:19:51;7.03;;;3.25;;
22754;SDS011;11544;42.020;23.094;2023-02-02T11:22:30;3.42;;;2.15;;
22754;SDS011;11544;42.020;23.094;2023-02-02T11:25:08;3.85;;;2.10;;
22754;SDS011;11544;42.020;23.094;2023-02-02T11:27:52;2.85;;;1.92;;
22754;SDS011;11544;42.020;23.094;2023-02-02T11:30:20;2.80;;;2.28;;
22754;SDS011;11544;42.020;23.094;2023-02-02T11:32:53;3.55;;;1.67;;
22754;SDS011;11544;42.020;23.094;2023-02-02T11:35:22;7.80;;;2.63;;
22754;SDS011;11544;42.020;23.094;2023-02-02T11:40:45;4.47;;;2.20;;
22754;SDS011;11544;42.020;23.094;2023-02-02T11:43:23;3.83;;;2.50;;
22754;SDS011;11544;42.020;23.094;2023-02-02T11:46:18;4.95;;;2.42;;
22754;SDS011;11544;42.020;23.094;2023-02-02T11:49:00;2.85;;;1.80;;
22754;SDS011;11544;42.020;23.094;2023-02-02T11:51:30;2.72;;;1.67;;
22754;SDS011;11544;42.020;23.094;2023-02-02T11:54:02;7.75;;;2.40;;
22754;SDS011;11544;42.020;23.094;2023-02-02T11:56:36;7.55;;;3.10;;
22754;SDS011;11544;42.020;23.094;2023-02-02T11:59:05;8.38;;;4.03;;
22754;SDS011;11544;42.020;23.094;2023-02-02T12:04:45;5.57;;;2.50;;
22754;SDS011;11544;42.020;23.094;2023-02-02T12:09:52;5.18;;;2.40;;
22754;SDS011;11544;42.020;23.094;2023-02-02T12:23:45;5.35;;;3.05;;
22754;SDS011;11544;42.020;23.094;2023-02-02T12:26:30;3.70;;;2.20;;
22754;SDS011;11544;42.020;23.094;2023-02-02T12:34:57;6.50;;;3.53;;
22754;SDS011;11544;42.020;23.094;2023-02-02T12:37:57;4.85;;;3.10;;
22754;SDS011;11544;42.020;23.094;2023-02-02T12:40:45;6.03;;;2.80;;
22754;SDS011;11544;42.020;23.094;2023-02-02T12:43:20;2.70;;;2.28;;
22754;SDS011;11544;42.020;23.094;2023-02-02T12:51:47;7.60;;;2.50;;
22754;SDS011;11544;42.020;23.094;2023-02-02T13:00:06;5.90;;;2.22;;
22754;SDS011;11544;42.020;23.094;2023-02-02T13:08:20;4.30;;;1.80;;
22754;SDS011;11544;42.020;23.094;2023-02-02T13:11:02;4.82;;;1.63;;
22754;SDS011;11544;42.020;23.094;2023-02-02T13:14:06;2.85;;;1.75;;
22754;SDS011;11544;42.020;23.094;2023-02-02T13:16:49;5.90;;;2.65;;
22754;SDS011;11544;42.020;23.094;2023-02-02T13:19:23;3.45;;;2.08;;
22754;SDS011;11544;42.020;23.094;2023-02-02T13:21:57;30.23;;;12.25;;
22754;SDS011;11544;42.020;23.094;2023-02-02T13:24:30;16.92;;;7.57;;
22754;SDS011;11544;42.020;23.094;2023-02-02T13:27:00;11.68;;;5.55;;
22754;SDS011;11544;42.020;23.094;2023-02-02T13:29:37;6.68;;;4.00;;
22754;SDS011;11544;42.020;23.094;2023-02-02T13:38:16;2.38;;;1.42;;
22754;SDS011;11544;42.020;23.094;2023-02-02T13:40:50;3.70;;;2.20;;
22754;SDS011;11544;42.020;23.094;2023-02-02T13:49:24;4.60;;;1.98;;
22754;SDS011;11544;42.020;23.094;2023-02-02T14:00:41;6.82;;;2.40;;
22754;SDS011;11544;42.020;23.094;2023-02-02T14:06:11;4.47;;;2.03;;
22754;SDS011;11544;42.020;23.094;2023-02-02T14:08:54;7.72;;;3.25;;
22754;SDS011;11544;42.020;23.094;2023-02-02T14:11:27;10.07;;;4.20;;
22754;SDS011;11544;42.020;23.094;2023-02-02T14:13:59;5.85;;;3.28;;
22754;SDS011;11544;42.020;23.094;2023-02-02T14:16:54;12.82;;;4.28;;
22754;SDS011;11544;42.020;23.094;2023-02-02T14:22:15;5.30;;;2.97;;
22754;SDS011;11544;42.020;23.094;2023-02-02T14:24:45;5.80;;;3.00;;
22754;SDS011;11544;42.020;23.094;2023-02-02T14:34:55;5.32;;;2.83;;
22754;SDS011;11544;42.020;23.094;2023-02-02T14:39:55;10.82;;;3.83;;
22754;SDS011;11544;42.020;23.094;2023-02-02T14:46:15;10.02;;;4.50;;
22754;SDS011;11544;42.020;23.094;2023-02-02T14:48:39;7.15;;;2.80;;
22754;SDS011;11544;42.020;23.094;2023-02-02T14:51:26;4.68;;;3.00;;
22754;SDS011;11544;42.020;23.094;2023-02-02T14:53:57;4.25;;;3.10;;
22754;SDS011;11544;42.020;23.094;2023-02-02T14:57:04;6.30;;;3.85;;
22754;SDS011;11544;42.020;23.094;2023-02-02T14:59:44;5.25;;;3.33;;
22754;SDS011;11544;42.020;23.094;2023-02-02T15:02:18;6.20;;;2.80;;
22754;SDS011;11544;42.020;23.094;2023-02-02T15:04:50;3.10;;;1.50;;
22754;SDS011;11544;42.020;23.094;2023-02-02T15:09:51;4.50;;;2.20;;
22754;SDS011;11544;42.020;23.094;2023-02-02T15:12:26;3.13;;;2.13;;
22754;SDS011;11544;42.020;23.094;2023-02-02T15:17:53;3.83;;;1.70;;
22754;SDS011;11544;42.020;23.094;2023-02-02T15:20:34;3.97;;;2.00;;
22754;SDS011;11544;42.020;23.094;2023-02-02T15:28:52;5.80;;;2.13;;
22754;SDS011;11544;42.020;23.094;2023-02-02T15:36:57;3.65;;;1.52;;
22754;SDS011;11544;42.020;23.094;2023-02-02T15:39:35;1.90;;;1.35;;
22754;SDS011;11544;42.020;23.094;2023-02-02T15:45:29;5.35;;;2.08;;
22754;SDS011;11544;42.020;23.094;2023-02-02T15:48:16;2.28;;;1.33;;
22754;SDS011;11544;42.020;23.094;2023-02-02T15:51:01;4.00;;;1.90;;
22754;SDS011;11544;42.020;23.094;2023-02-02T15:56:17;2.38;;;1.80;;
22754;SDS011;11544;42.020;23.094;2023-02-02T15:58:48;4.22;;;2.22;;
22754;SDS011;11544;42.020;23.094;2023-02-02T16:01:18;7.90;;;3.10;;
22754;SDS011;11544;42.020;23.094;2023-02-02T16:06:18;5.93;;;2.65;;
22754;SDS011;11544;42.020;23.094;2023-02-02T16:08:48;6.30;;;3.55;;
22754;SDS011;11544;42.020;23.094;2023-02-02T16:11:19;5.88;;;2.63;;
22754;SDS011;11544;42.020;23.094;2023-02-02T16:13:55;8.20;;;2.92;;
22754;SDS011;11544;42.020;23.094;2023-02-02T16:16:24;5.65;;;2.92;;
22754;SDS011;11544;42.020;23.094;2023-02-02T16:21:35;4.15;;;2.70;;
22754;SDS011;11544;42.020;23.094;2023-02-02T16:24:23;9.45;;;3.08;;
22754;SDS011;11544;42.020;23.094;2023-02-02T16:26:54;3.05;;;2.53;;
22754;SDS011;11544;42.020;23.094;2023-02-02T16:29:25;7.55;;;4.15;;
22754;SDS011;11544;42.020;23.094;2023-02-02T16:31:53;10.52;;;5.43;;
22754;SDS011;11544;42.020;23.094;2023-02-02T16:40:35;17.67;;;9.27;;
22754;SDS011;11544;42.020;23.094;2023-02-02T16:45:48;50.45;;;23.00;;
22754;SDS011;11544;42.020;23.094;2023-02-02T16:51:25;26.73;;;14.60;;
22754;SDS011;11544;42.020;23.094;2023-02-02T16:56:57;27.15;;;13.88;;
22754;SDS011;11544;42.020;23.094;2023-02-02T16:59:36;24.45;;;11.98;;
22754;SDS011;11544;42.020;23.094;2023-02-02T17:02:26;21.77;;;11.93;;
22754;SDS011;11544;42.020;23.094;2023-02-02T17:04:53;25.65;;;14.15;;
22754;SDS011;11544;42.020;23.094;2023-02-02T17:07:25;22.23;;;13.55;;
22754;SDS011;11544;42.020;23.094;2023-02-02T17:12:58;28.38;;;15.13;;
22754;SDS011;11544;42.020;23.094;2023-02-02T17:15:30;10.98;;;7.32;;
22754;SDS011;11544;42.020;23.094;2023-02-02T17:18:01;5.80;;;4.07;;
22754;SDS011;11544;42.020;23.094;2023-02-02T17:20:29;7.15;;;3.10;;
22754;SDS011;11544;42.020;23.094;2023-02-02T17:23:05;4.10;;;2.42;;
22754;SDS011;11544;42.020;23.094;2023-02-02T17:25:41;8.43;;;2.15;;
22754;SDS011;11544;42.020;23.094;2023-02-02T17:28:09;3.05;;;2.35;;
22754;SDS011;11544;42.020;23.094;2023-02-02T17:30:42;4.40;;;2.30;;
22754;SDS011;11544;42.020;23.094;2023-02-02T17:33:11;4.47;;;2.30;;
22754;SDS011;11544;42.020;23.094;2023-02-02T17:35:42;4.60;;;2.58;;
22754;SDS011;11544;42.020;23.094;2023-02-02T17:38:22;4.70;;;2.13;;